createdAt,value
2019-03-24T00:01:41.229Z,18.77
2019-03-24T00:03:43.147Z,16.97
2019-03-24T00:05:48.515Z,17.93
2019-03-24T00:07:53.987Z,15.20
2019-03-24T00:09:59.348Z,13.83
2019-03-24T00:12:04.772Z,11.37
2019-03-24T00:14:10.991Z,17.40
2019-03-24T00:16:16.423Z,18.97
2019-03-24T00:18:21.731Z,14.03
2019-03-24T00:20:27.035Z,16.93
2019-03-24T00:22:32.482Z,13.90
2019-03-24T00:24:37.829Z,13.83
2019-03-24T00:26:43.353Z,14.23
2019-03-24T00:28:48.675Z,12.37
2019-03-24T00:30:54.008Z,14.70
2019-03-24T00:32:59.608Z,14.77
2019-03-24T00:35:05.347Z,13.30
2019-03-24T00:37:10.874Z,14.43
2019-03-24T00:39:17.623Z,11.50
2019-03-24T00:41:23.975Z,11.33
2019-03-24T00:43:29.209Z,15.13
2019-03-24T00:45:36.959Z,15.17
2019-03-24T00:47:41.695Z,15.93
2019-03-24T00:49:47.006Z,17.53
2019-03-24T00:51:52.345Z,14.30
2019-03-24T00:53:57.664Z,12.90
2019-03-24T00:56:03.275Z,15.33
2019-03-24T00:58:08.662Z,13.60
2019-03-24T01:00:14.308Z,14.40
2019-03-24T01:02:19.667Z,14.43
2019-03-24T01:04:25.058Z,12.97
2019-03-24T01:06:30.436Z,15.13
2019-03-24T01:08:35.836Z,14.63
2019-03-24T01:10:41.276Z,12.03
2019-03-24T01:12:46.648Z,14.87
2019-03-24T01:14:52.057Z,16.27
2019-03-24T01:16:57.316Z,14.40
2019-03-24T01:19:02.626Z,13.67
2019-03-24T01:21:08.868Z,14.13
2019-03-24T01:23:14.433Z,16.57
2019-03-24T01:25:19.697Z,15.77
2019-03-24T01:27:27.648Z,12.73
2019-03-24T01:29:33.089Z,14.63
2019-03-24T01:31:38.367Z,15.27
2019-03-24T01:33:43.683Z,14.53
2019-03-24T01:35:49.047Z,11.53
2019-03-24T01:37:54.265Z,12.17
2019-03-24T01:40:01.230Z,11.87
2019-03-24T01:42:06.555Z,12.93
2019-03-24T01:44:11.840Z,13.90
2019-03-24T01:46:17.494Z,14.90
2019-03-24T01:48:23.249Z,14.07
2019-03-24T01:50:28.655Z,11.90
2019-03-24T01:52:34.027Z,17.03
2019-03-24T01:54:39.236Z,22.20
2019-03-24T01:56:44.528Z,11.90
2019-03-24T01:58:49.864Z,12.93
2019-03-24T02:00:55.541Z,14.20
2019-03-24T02:03:01.452Z,11.47
2019-03-24T02:05:07.175Z,11.13
2019-03-24T02:07:12.488Z,15.00
2019-03-24T02:09:18.319Z,12.83
2019-03-24T02:11:23.708Z,14.17
2019-03-24T02:13:29.257Z,14.20
2019-03-24T02:15:34.624Z,13.13
2019-03-24T02:17:39.932Z,12.30
2019-03-24T02:19:45.335Z,14.07
2019-03-24T02:21:50.707Z,12.60
2019-03-24T02:23:56.048Z,12.67
2019-03-24T02:26:01.369Z,15.30
2019-03-24T02:28:06.833Z,10.13
2019-03-24T02:30:12.380Z,11.23
2019-03-24T02:32:17.727Z,11.70
2019-03-24T02:34:23.067Z,13.07
2019-03-24T02:36:28.697Z,13.80
2019-03-24T02:38:34.181Z,16.40
2019-03-24T02:40:39.667Z,12.90
2019-03-24T02:42:45.077Z,10.23
2019-03-24T02:44:50.624Z,11.83
2019-03-24T02:46:55.888Z,17.23
2019-03-24T02:49:01.212Z,13.13
2019-03-24T02:51:06.657Z,10.67
2019-03-24T02:53:12.109Z,12.10
2019-03-24T02:55:17.544Z,12.83
2019-03-24T02:57:23.001Z,11.53
2019-03-24T02:59:28.327Z,12.77
2019-03-24T03:01:33.656Z,14.60
2019-03-24T03:03:38.972Z,10.17
2019-03-24T03:05:44.330Z,12.40
2019-03-24T03:07:49.622Z,12.17
2019-03-24T03:09:54.901Z,13.97
2019-03-24T03:12:00.443Z,10.57
2019-03-24T03:14:05.779Z,11.37
2019-03-24T03:16:11.065Z,13.60
2019-03-24T03:18:16.427Z,10.70
2019-03-24T03:20:21.806Z,14.63
2019-03-24T03:22:28.287Z,15.37
2019-03-24T03:24:34.236Z,11.13
2019-03-24T03:26:39.581Z,13.10
2019-03-24T03:28:45.002Z,13.83
2019-03-24T03:30:50.345Z,9.37
2019-03-24T03:32:55.742Z,12.13
2019-03-24T03:35:01.128Z,11.90
2019-03-24T03:37:06.744Z,12.13
2019-03-24T03:39:12.212Z,12.13
2019-03-24T03:41:17.504Z,13.43
2019-03-24T03:43:22.954Z,12.27
2019-03-24T03:45:29.097Z,9.90
2019-03-24T03:47:34.494Z,15.40
2019-03-24T03:49:39.792Z,12.30
2019-03-24T03:51:45.275Z,10.33
2019-03-24T03:53:50.594Z,10.67
2019-03-24T03:55:56.047Z,12.93
2019-03-24T03:58:02.632Z,10.47
2019-03-24T04:00:09.817Z,13.13
2019-03-24T04:02:15.219Z,11.47
2019-03-24T04:04:20.606Z,11.10
2019-03-24T04:06:26.005Z,13.90
2019-03-24T04:08:31.365Z,11.83
2019-03-24T04:10:36.698Z,8.73
2019-03-24T04:12:42.037Z,11.47
2019-03-24T04:14:47.373Z,12.80
2019-03-24T04:17:05.707Z,11.23
2019-03-24T04:18:59.673Z,7.77
2019-03-24T04:21:04.957Z,11.70
2019-03-24T04:23:10.572Z,12.57
2019-03-24T04:25:16.113Z,12.37
2019-03-24T04:27:21.434Z,12.83
2019-03-24T04:29:26.678Z,10.90
2019-03-24T04:31:32.055Z,10.13
2019-03-24T04:33:37.561Z,12.20
2019-03-24T04:35:44.311Z,11.43
2019-03-24T04:37:49.655Z,11.53
2019-03-24T04:39:55.098Z,12.67
2019-03-24T04:42:00.552Z,9.83
2019-03-24T04:44:05.994Z,11.70
2019-03-24T04:46:11.346Z,12.47
2019-03-24T04:48:17.884Z,10.17
2019-03-24T04:50:23.512Z,12.47
2019-03-24T04:52:29.040Z,9.27
2019-03-24T04:54:34.396Z,12.63
2019-03-24T04:56:39.865Z,11.17
2019-03-24T04:58:45.231Z,9.57
2019-03-24T05:00:51.268Z,13.03
2019-03-24T05:02:56.543Z,9.87
2019-03-24T05:05:02.049Z,12.50
2019-03-24T05:07:07.769Z,8.23
2019-03-24T05:09:13.214Z,9.63
2019-03-24T05:11:18.587Z,10.13
2019-03-24T05:13:23.939Z,10.77
2019-03-24T05:15:29.350Z,9.93
2019-03-24T05:17:34.771Z,8.57
2019-03-24T05:19:40.127Z,10.27
2019-03-24T05:21:45.403Z,9.47
2019-03-24T05:23:50.667Z,10.87
2019-03-24T05:25:56.067Z,10.50
2019-03-24T05:28:01.552Z,10.80
2019-03-24T05:30:06.973Z,15.03
2019-03-24T05:32:12.328Z,9.87
2019-03-24T05:34:17.626Z,10.23
2019-03-24T05:36:23.000Z,9.23
2019-03-24T05:38:28.299Z,11.13
2019-03-24T05:40:33.747Z,9.63
2019-03-24T05:42:39.238Z,15.77
2019-03-24T05:44:44.691Z,11.77
2019-03-24T05:46:50.095Z,14.50
2019-03-24T05:48:55.468Z,12.00
2019-03-24T05:51:01.025Z,14.23
2019-03-24T05:53:06.289Z,10.60
2019-03-24T05:55:11.712Z,12.17
2019-03-24T05:57:17.121Z,16.00
2019-03-24T05:59:22.671Z,15.67
2019-03-24T06:01:27.964Z,15.57
2019-03-24T06:03:33.341Z,11.87
2019-03-24T06:05:38.791Z,13.57
2019-03-24T06:07:44.054Z,13.67
2019-03-24T06:09:50.353Z,12.93
2019-03-24T06:11:55.641Z,10.17
2019-03-24T06:14:00.996Z,14.30
2019-03-24T06:16:06.347Z,14.97
2019-03-24T06:18:11.832Z,16.73
2019-03-24T06:20:17.088Z,14.97
2019-03-24T06:22:22.528Z,14.03
2019-03-24T06:24:27.876Z,16.67
2019-03-24T06:26:33.589Z,14.50
2019-03-24T06:28:38.856Z,13.33
2019-03-24T06:30:44.162Z,14.57
2019-03-24T06:32:49.552Z,14.87
2019-03-24T06:34:55.059Z,13.97
2019-03-24T06:37:00.406Z,17.17
2019-03-24T06:39:07.449Z,17.73
2019-03-24T06:41:12.975Z,28.17
2019-03-24T06:43:18.556Z,14.13
2019-03-24T06:45:28.321Z,26.17
2019-03-24T06:47:30.873Z,23.57
2019-03-24T06:49:36.205Z,28.00
2019-03-24T06:51:41.717Z,19.57
2019-03-24T06:53:48.129Z,27.57
2019-03-24T06:55:53.389Z,25.53
2019-03-24T06:57:58.809Z,19.93
2019-03-24T07:00:05.756Z,18.50
2019-03-24T07:02:13.256Z,20.73
2019-03-24T07:04:18.639Z,19.90
2019-03-24T07:06:23.997Z,23.53
2019-03-24T07:08:29.390Z,18.20
2019-03-24T07:10:36.057Z,20.00
2019-03-24T07:12:43.078Z,20.10
2019-03-24T07:14:48.605Z,12.83
2019-03-24T07:16:54.104Z,20.03
2019-03-24T07:18:59.440Z,28.70
2019-03-24T07:21:04.868Z,26.60
2019-03-24T07:23:11.575Z,22.80
2019-03-24T07:25:16.995Z,22.23
2019-03-24T07:27:22.449Z,23.10
2019-03-24T07:29:28.085Z,16.23
2019-03-24T07:31:33.623Z,20.63
2019-03-24T07:33:38.948Z,23.90
2019-03-24T07:35:44.299Z,23.23
2019-03-24T07:37:49.679Z,26.50
2019-03-24T07:39:55.126Z,25.40
2019-03-24T07:42:00.595Z,21.37
2019-03-24T07:44:05.838Z,15.07
2019-03-24T07:46:11.332Z,17.53
2019-03-24T07:48:19.211Z,24.43
2019-03-24T07:50:24.598Z,25.83
2019-03-24T07:52:30.078Z,16.43
2019-03-24T07:54:35.546Z,14.30
2019-03-24T07:56:40.927Z,15.97
2019-03-24T07:58:46.404Z,21.10
2019-03-24T08:00:51.947Z,21.30
2019-03-24T08:02:57.345Z,23.03
2019-03-24T08:05:02.929Z,17.53
2019-03-24T08:07:09.611Z,30.53
2019-03-24T08:09:15.140Z,28.47
2019-03-24T08:11:20.815Z,36.67
2019-03-24T08:13:27.506Z,25.23
2019-03-24T08:15:33.827Z,29.17
2019-03-24T08:17:39.207Z,32.63
2019-03-24T08:19:44.565Z,28.20
2019-03-24T08:21:49.909Z,30.53
2019-03-24T08:23:55.375Z,28.10
2019-03-24T08:26:00.659Z,29.90
2019-03-24T08:28:06.050Z,23.73
2019-03-24T08:30:11.596Z,23.67
2019-03-24T08:32:17.140Z,25.03
2019-03-24T08:34:22.399Z,19.07
2019-03-24T08:36:27.736Z,25.47
2019-03-24T08:38:36.201Z,24.63
2019-03-24T08:40:41.571Z,31.87
2019-03-24T08:42:46.944Z,29.77
2019-03-24T08:44:52.348Z,31.17
2019-03-24T08:46:57.668Z,33.00
2019-03-24T08:49:03.112Z,34.60
2019-03-24T08:51:08.368Z,30.60
2019-03-24T08:53:13.802Z,36.50
2019-03-24T08:55:19.159Z,37.67
2019-03-24T08:57:25.731Z,28.97
2019-03-24T08:59:31.160Z,38.07
2019-03-24T09:01:36.462Z,42.10
2019-03-24T09:03:45.521Z,35.13
2019-03-24T09:05:50.776Z,35.57
2019-03-24T09:07:56.088Z,38.70
2019-03-24T09:10:01.439Z,49.50
2019-03-24T09:12:06.981Z,50.77
2019-03-24T09:14:12.384Z,42.97
2019-03-24T09:16:19.736Z,44.73
2019-03-24T09:18:25.233Z,41.97
2019-03-24T09:20:40.978Z,41.93
2019-03-24T09:22:38.787Z,49.77
2019-03-24T09:24:44.767Z,47.97
2019-03-24T09:26:50.728Z,42.43
2019-03-24T09:28:59.749Z,41.23
2019-03-24T09:31:05.132Z,41.37
2019-03-24T09:33:10.768Z,39.47
2019-03-24T09:35:16.299Z,42.57
2019-03-24T09:37:21.642Z,48.03
2019-03-24T09:39:27.210Z,41.87
2019-03-24T09:41:32.560Z,36.30
2019-03-24T09:43:37.953Z,41.40
2019-03-24T09:45:44.517Z,35.73
2019-03-24T09:47:50.118Z,41.37
2019-03-24T09:49:55.520Z,40.17
2019-03-24T09:52:00.993Z,40.07
2019-03-24T09:54:10.303Z,43.37
2019-03-24T09:56:15.745Z,43.17
2019-03-24T09:58:21.405Z,45.73
2019-03-24T10:00:27.162Z,40.00
2019-03-24T10:02:34.962Z,43.10
2019-03-24T10:04:40.318Z,44.67
2019-03-24T10:06:45.684Z,38.33
2019-03-24T10:08:51.060Z,39.37
2019-03-24T10:10:56.418Z,45.73
2019-03-24T10:13:01.705Z,38.17
2019-03-24T10:15:08.261Z,44.13
2019-03-24T10:17:13.651Z,39.80
2019-03-24T10:19:19.192Z,34.77
2019-03-24T10:21:24.535Z,40.37
2019-03-24T10:23:29.974Z,38.70
2019-03-24T10:25:35.417Z,34.40
2019-03-24T10:27:40.852Z,34.10
2019-03-24T10:29:46.158Z,40.10
2019-03-24T10:31:51.618Z,35.63
2019-03-24T10:33:57.047Z,33.83
2019-03-24T10:36:02.564Z,34.80
2019-03-24T10:38:07.914Z,34.83
2019-03-24T10:40:13.333Z,35.90
2019-03-24T10:42:18.725Z,36.73
2019-03-24T10:44:25.424Z,34.40
2019-03-24T10:46:30.730Z,29.07
2019-03-24T10:48:36.289Z,31.30
2019-03-24T10:50:41.843Z,30.30
2019-03-24T10:52:47.212Z,26.90
2019-03-24T10:54:52.586Z,28.70
2019-03-24T10:56:58.344Z,29.40
2019-03-24T10:59:06.778Z,27.90
2019-03-24T11:01:12.036Z,29.83
2019-03-24T11:03:17.339Z,32.47
2019-03-24T11:05:22.647Z,26.03
2019-03-24T11:07:28.091Z,30.50
2019-03-24T11:09:35.096Z,24.37
2019-03-24T11:11:40.455Z,29.20
2019-03-24T11:13:47.097Z,25.53
2019-03-24T11:15:54.209Z,30.17
2019-03-24T11:18:00.777Z,27.73
2019-03-24T11:20:07.702Z,25.53
2019-03-24T11:22:13.096Z,25.53
2019-03-24T11:24:33.150Z,31.67
2019-03-24T11:26:41.988Z,24.67
2019-03-24T11:28:47.391Z,20.77
2019-03-24T11:30:52.690Z,24.30
2019-03-24T11:32:58.096Z,25.57
2019-03-24T11:35:03.547Z,24.90
2019-03-24T11:37:09.057Z,25.50
2019-03-24T11:39:14.381Z,20.90
2019-03-24T11:41:19.911Z,22.03
2019-03-24T11:43:25.346Z,22.50
2019-03-24T11:45:30.752Z,19.83
2019-03-24T11:47:36.234Z,18.57
2019-03-24T11:49:46.027Z,21.13
2019-03-24T11:51:48.577Z,18.40
2019-03-24T11:53:54.059Z,21.63
2019-03-24T11:55:59.332Z,17.10
2019-03-24T11:58:06.133Z,21.73
2019-03-24T12:00:12.293Z,20.57
2019-03-24T12:02:18.000Z,25.80
2019-03-24T12:04:23.338Z,19.30
2019-03-24T12:06:28.993Z,24.57
2019-03-24T12:08:34.532Z,18.23
2019-03-24T12:10:40.030Z,24.60
2019-03-24T12:12:45.371Z,21.23
2019-03-24T12:14:50.912Z,27.30
2019-03-24T12:16:56.471Z,25.37
2019-03-24T12:19:01.936Z,23.90
2019-03-24T12:21:07.280Z,22.07
2019-03-24T12:23:12.730Z,26.17
2019-03-24T12:25:18.390Z,24.73
2019-03-24T12:27:23.953Z,25.50
2019-03-24T12:29:29.393Z,33.73
2019-03-24T12:31:34.821Z,37.93
2019-03-24T12:33:40.211Z,35.67
2019-03-24T12:35:45.814Z,30.40
2019-03-24T12:37:51.704Z,43.43
2019-03-24T12:39:58.158Z,38.70
2019-03-24T12:42:03.519Z,35.70
2019-03-24T12:44:08.830Z,33.20
2019-03-24T12:46:14.204Z,38.73
2019-03-24T12:48:19.596Z,30.23
2019-03-24T12:50:31.339Z,27.37
2019-03-24T12:52:32.073Z,39.23
2019-03-24T12:54:37.816Z,35.87
2019-03-24T12:56:43.224Z,41.93
2019-03-24T12:58:49.776Z,32.30
2019-03-24T13:00:55.155Z,28.87
2019-03-24T13:03:01.609Z,31.00
2019-03-24T13:05:08.154Z,27.03
2019-03-24T13:07:13.691Z,29.83
2019-03-24T13:09:19.011Z,23.87
2019-03-24T13:11:24.557Z,29.50
2019-03-24T13:13:29.896Z,31.47
2019-03-24T13:15:35.236Z,24.10
2019-03-24T13:17:41.102Z,29.70
2019-03-24T13:19:46.717Z,27.57
2019-03-24T13:21:53.716Z,25.43
2019-03-24T13:23:59.095Z,27.90
2019-03-24T13:26:07.757Z,27.73
2019-03-24T13:28:13.105Z,24.27
2019-03-24T13:30:18.600Z,25.60
2019-03-24T13:32:23.921Z,22.27
2019-03-24T13:34:29.314Z,22.80
2019-03-24T13:36:34.595Z,26.00
2019-03-24T13:38:40.148Z,23.73
2019-03-24T13:40:45.625Z,26.17
2019-03-24T13:42:51.084Z,23.03
2019-03-24T13:44:56.723Z,22.93
2019-03-24T13:47:02.102Z,21.33
2019-03-24T13:49:07.589Z,23.47
2019-03-24T13:51:12.950Z,21.73
2019-03-24T13:53:18.484Z,23.33
2019-03-24T13:55:24.100Z,19.50
2019-03-24T13:57:29.573Z,22.67
2019-03-24T13:59:34.985Z,22.10
2019-03-24T14:01:40.537Z,22.43
2019-03-24T14:03:45.936Z,20.67
2019-03-24T14:05:51.343Z,21.47
2019-03-24T14:07:58.376Z,20.47
2019-03-24T14:10:04.074Z,22.43
2019-03-24T14:12:10.748Z,18.37
2019-03-24T14:14:16.098Z,21.80
2019-03-24T14:16:21.514Z,17.80
2019-03-24T14:18:26.904Z,22.43
2019-03-24T14:20:42.686Z,20.10
2019-03-24T14:22:39.562Z,16.50
2019-03-24T14:24:44.810Z,17.53
2019-03-24T14:26:50.217Z,17.80
2019-03-24T14:28:55.570Z,22.57
2019-03-24T14:31:00.915Z,19.37
2019-03-24T14:33:06.330Z,17.50
2019-03-24T14:35:12.003Z,22.90
2019-03-24T14:37:17.365Z,17.57
2019-03-24T14:39:22.789Z,19.33
2019-03-24T14:41:28.217Z,21.47
2019-03-24T14:43:33.850Z,16.33
2019-03-24T14:45:39.388Z,17.17
2019-03-24T14:47:44.759Z,18.00
2019-03-24T14:49:50.073Z,20.90
2019-03-24T14:51:55.494Z,18.20
2019-03-24T14:54:00.827Z,16.10
2019-03-24T14:56:06.305Z,16.07
2019-03-24T14:58:11.837Z,17.13
2019-03-24T15:00:23.934Z,12.20
2019-03-24T15:02:29.495Z,18.97
2019-03-24T15:04:34.924Z,17.03
2019-03-24T15:06:40.836Z,17.30
2019-03-24T15:08:46.274Z,17.53
2019-03-24T15:10:51.585Z,14.97
2019-03-24T15:12:58.030Z,19.00
2019-03-24T15:15:03.555Z,13.70
2019-03-24T15:17:08.998Z,19.57
2019-03-24T15:19:14.306Z,17.27
2019-03-24T15:21:19.616Z,15.43
2019-03-24T15:23:25.020Z,18.93
2019-03-24T15:25:32.455Z,15.97
2019-03-24T15:27:37.930Z,13.53
2019-03-24T15:29:43.803Z,14.47
2019-03-24T15:31:49.450Z,15.13
2019-03-24T15:33:56.214Z,13.03
2019-03-24T15:36:01.633Z,18.00
2019-03-24T15:38:08.874Z,13.17
2019-03-24T15:40:14.974Z,13.67
2019-03-24T15:42:21.273Z,18.37
2019-03-24T15:44:27.725Z,14.53
2019-03-24T15:46:33.229Z,12.27
2019-03-24T15:48:38.639Z,14.73
2019-03-24T15:50:44.190Z,18.80
2019-03-24T15:52:49.572Z,10.97
2019-03-24T15:54:54.931Z,13.03
2019-03-24T15:57:00.229Z,15.43
2019-03-24T15:59:05.694Z,13.60
2019-03-24T16:01:11.088Z,13.27
2019-03-24T16:03:16.540Z,11.70
2019-03-24T16:05:22.006Z,12.17
2019-03-24T16:07:27.770Z,16.77
2019-03-24T16:09:33.071Z,11.13
2019-03-24T16:11:38.498Z,10.40
2019-03-24T16:13:44.085Z,11.43
2019-03-24T16:15:49.524Z,10.47
2019-03-24T16:17:54.976Z,12.30
2019-03-24T16:20:00.332Z,13.60
2019-03-24T16:22:05.651Z,10.23
2019-03-24T16:24:10.999Z,13.60
2019-03-24T16:26:16.807Z,9.87
2019-03-24T16:28:22.169Z,12.57
2019-03-24T16:30:27.589Z,12.40
2019-03-24T16:32:32.909Z,12.60
2019-03-24T16:34:38.209Z,13.33
2019-03-24T16:36:43.531Z,12.60
2019-03-24T16:38:49.355Z,11.07
2019-03-24T16:40:55.173Z,12.07
2019-03-24T16:43:00.515Z,10.30
2019-03-24T16:45:07.161Z,14.43
2019-03-24T16:47:12.691Z,11.77
2019-03-24T16:49:18.091Z,9.73
2019-03-24T16:51:23.394Z,13.87
2019-03-24T16:53:28.715Z,14.03
2019-03-24T16:55:34.748Z,10.07
2019-03-24T16:57:40.177Z,10.83
2019-03-24T16:59:45.838Z,12.97
2019-03-24T17:01:51.274Z,11.57
2019-03-24T17:03:57.034Z,10.13
2019-03-24T17:06:02.480Z,12.13
2019-03-24T17:08:07.777Z,12.47
2019-03-24T17:10:14.644Z,9.73
2019-03-24T17:12:20.076Z,10.13
2019-03-24T17:14:25.523Z,12.33
2019-03-24T17:16:30.847Z,11.43
2019-03-24T17:18:36.221Z,9.27
2019-03-24T17:20:41.738Z,11.87
2019-03-24T17:22:47.185Z,11.03
2019-03-24T17:24:54.256Z,9.73
2019-03-24T17:26:59.738Z,10.37
2019-03-24T17:29:07.873Z,11.30
2019-03-24T17:31:13.372Z,8.83
2019-03-24T17:33:19.024Z,8.10
2019-03-24T17:35:24.365Z,10.83
2019-03-24T17:37:30.078Z,9.73
2019-03-24T17:39:35.656Z,9.53
2019-03-24T17:41:41.052Z,9.47
2019-03-24T17:43:46.358Z,11.03
2019-03-24T17:45:53.057Z,9.10
2019-03-24T17:47:59.916Z,11.10
2019-03-24T17:50:17.383Z,13.33
2019-03-24T17:52:24.217Z,20.70
2019-03-24T17:54:31.555Z,25.87
2019-03-24T17:56:43.644Z,25.87
2019-03-24T17:58:54.811Z,27.27
2019-03-24T18:01:16.911Z,37.30
2019-03-24T18:03:24.507Z,32.83
2019-03-24T18:05:30.016Z,22.90
2019-03-24T18:07:47.187Z,18.77
2019-03-24T18:09:52.612Z,17.40
2019-03-24T18:11:57.907Z,22.47
2019-03-24T18:14:03.337Z,27.63
2019-03-24T18:16:10.644Z,25.33
2019-03-24T18:18:17.412Z,29.90
2019-03-24T18:21:05.065Z,27.10
2019-03-24T18:23:17.245Z,26.33
2019-03-24T18:25:34.332Z,35.60
2019-03-24T18:28:01.616Z,26.97
2019-03-24T18:30:16.383Z,22.33
2019-03-24T18:32:27.617Z,18.67
2019-03-24T18:34:34.078Z,20.70
2019-03-24T18:36:40.048Z,27.07
2019-03-24T18:39:02.052Z,16.77
2019-03-24T18:41:20.973Z,21.03
2019-03-24T18:43:48.437Z,22.57
2019-03-24T18:46:07.912Z,24.30
2019-03-24T18:48:15.780Z,21.80
2019-03-24T18:50:32.938Z,23.00
2019-03-24T18:52:53.488Z,24.77
2019-03-24T18:55:26.620Z,21.90
2019-03-24T18:57:36.091Z,22.80
2019-03-24T18:59:42.740Z,24.33
2019-03-24T19:01:57.706Z,24.27
2019-03-24T19:04:13.264Z,22.33
2019-03-24T19:06:21.403Z,18.03
2019-03-24T19:08:27.555Z,21.70
2019-03-24T19:10:35.083Z,23.40
2019-03-24T19:12:44.673Z,22.23
2019-03-24T19:14:52.859Z,24.60
2019-03-24T19:17:26.847Z,18.60
2019-03-24T19:19:34.027Z,28.93
2019-03-24T19:22:03.186Z,16.20
2019-03-24T19:24:26.441Z,19.27
2019-03-24T19:26:51.700Z,17.03
2019-03-24T19:29:06.887Z,15.50
2019-03-24T19:31:19.012Z,19.20
2019-03-24T19:33:38.055Z,27.77
2019-03-24T19:35:58.782Z,20.90
2019-03-24T19:38:07.341Z,17.07
2019-03-24T19:40:28.141Z,15.67
2019-03-24T19:42:34.783Z,19.37
2019-03-24T19:44:42.043Z,19.13
2019-03-24T19:46:53.185Z,15.17
2019-03-24T19:48:59.452Z,13.67
2019-03-24T19:51:06.963Z,18.97
2019-03-24T19:53:11.830Z,14.03
2019-03-24T19:55:17.322Z,16.70
2019-03-24T19:57:22.881Z,11.53
2019-03-24T19:59:28.397Z,16.17
2019-03-24T20:01:33.853Z,21.57
2019-03-24T20:03:39.278Z,21.00
2019-03-24T20:05:44.631Z,27.03
2019-03-24T20:07:50.046Z,28.33
2019-03-24T20:09:55.521Z,25.07
2019-03-24T20:12:00.808Z,30.40
2019-03-24T20:14:06.205Z,34.77
2019-03-24T20:16:11.549Z,22.40
2019-03-24T20:18:17.365Z,23.70
2019-03-24T20:20:23.080Z,27.63
2019-03-24T20:22:28.656Z,30.70
2019-03-24T20:24:34.050Z,21.90
2019-03-24T20:26:39.760Z,21.93
2019-03-24T20:28:45.496Z,25.03
2019-03-24T20:30:51.362Z,22.77
2019-03-24T20:32:57.169Z,24.77
2019-03-24T20:35:02.864Z,29.10
2019-03-24T20:37:08.659Z,18.90
2019-03-24T20:39:14.187Z,23.73
2019-03-24T20:41:19.686Z,20.57
2019-03-24T20:43:25.039Z,34.20
2019-03-24T20:45:30.565Z,23.20
2019-03-24T20:47:36.102Z,24.90
2019-03-24T20:49:41.416Z,22.30
2019-03-24T20:51:46.982Z,20.27
2019-03-24T20:53:55.281Z,16.03
2019-03-24T20:56:00.723Z,22.03
2019-03-24T20:58:06.079Z,25.20
2019-03-24T21:00:11.719Z,24.87
2019-03-24T21:02:17.390Z,21.43
2019-03-24T21:04:22.901Z,25.47
2019-03-24T21:06:28.508Z,18.47
2019-03-24T21:08:34.876Z,18.60
2019-03-24T21:10:41.228Z,22.50
2019-03-24T21:12:47.400Z,20.13
2019-03-24T21:14:52.906Z,23.70
2019-03-24T21:16:58.219Z,18.87
2019-03-24T21:19:03.698Z,14.00
2019-03-24T21:21:09.069Z,19.37
2019-03-24T21:23:14.427Z,22.77
2019-03-24T21:25:20.202Z,14.23
2019-03-24T21:27:25.629Z,17.03
2019-03-24T21:29:31.182Z,18.57
2019-03-24T21:31:36.522Z,16.67
2019-03-24T21:33:41.891Z,20.30
2019-03-24T21:35:47.422Z,14.77
2019-03-24T21:37:52.790Z,17.43
2019-03-24T21:39:58.166Z,13.63
2019-03-24T21:42:03.686Z,21.03
2019-03-24T21:44:09.044Z,19.90
2019-03-24T21:46:14.490Z,14.40
2019-03-24T21:48:19.982Z,18.60
2019-03-24T21:50:25.563Z,15.90
2019-03-24T21:52:30.904Z,18.13
2019-03-24T21:54:36.263Z,18.20
2019-03-24T21:56:41.572Z,18.63
2019-03-24T21:58:47.052Z,17.20
2019-03-24T22:00:53.382Z,20.70
2019-03-24T22:02:58.713Z,13.83
2019-03-24T22:05:04.584Z,18.70
2019-03-24T22:07:09.869Z,14.80
2019-03-24T22:09:15.341Z,15.93
2019-03-24T22:11:20.703Z,20.80
2019-03-24T22:13:26.044Z,16.57
2019-03-24T22:15:31.601Z,16.00
2019-03-24T22:17:36.904Z,17.87
2019-03-24T22:19:42.242Z,14.20
2019-03-24T22:21:48.003Z,17.03
2019-03-24T22:23:53.306Z,17.43
2019-03-24T22:25:58.841Z,16.07
2019-03-24T22:28:04.371Z,15.63
2019-03-24T22:30:11.181Z,14.17
2019-03-24T22:32:16.582Z,16.23
2019-03-24T22:34:21.916Z,14.07
2019-03-24T22:36:27.365Z,15.90
2019-03-24T22:38:32.725Z,17.23
2019-03-24T22:40:37.965Z,15.93
2019-03-24T22:42:43.303Z,14.10
2019-03-24T22:44:48.783Z,15.70
2019-03-24T22:46:54.086Z,16.57
2019-03-24T22:48:59.621Z,15.13
2019-03-24T22:51:05.134Z,15.67
2019-03-24T22:53:10.544Z,18.23
2019-03-24T22:55:16.015Z,15.80
2019-03-24T22:57:23.048Z,14.63
2019-03-24T22:59:28.349Z,18.40
2019-03-24T23:01:35.623Z,14.10
2019-03-24T23:03:41.065Z,16.63
2019-03-24T23:05:46.532Z,16.50
2019-03-24T23:07:52.562Z,17.57
2019-03-24T23:09:58.043Z,22.73
2019-03-24T23:12:05.291Z,18.60
2019-03-24T23:14:10.884Z,14.67
2019-03-24T23:16:17.365Z,17.50
2019-03-24T23:18:22.686Z,14.77
2019-03-24T23:20:28.021Z,14.43
2019-03-24T23:22:34.962Z,18.17
2019-03-24T23:24:40.735Z,14.70
2019-03-24T23:26:46.321Z,16.67
2019-03-24T23:28:51.904Z,15.13
2019-03-24T23:30:57.240Z,15.67
2019-03-24T23:33:02.534Z,14.73
2019-03-24T23:35:07.911Z,16.70
2019-03-24T23:37:13.371Z,15.93
2019-03-24T23:39:18.868Z,12.67
2019-03-24T23:41:24.279Z,14.37
2019-03-24T23:43:29.808Z,17.33
2019-03-24T23:45:36.443Z,13.00
2019-03-24T23:47:41.827Z,13.67
2019-03-24T23:49:48.766Z,18.57
2019-03-24T23:51:54.227Z,14.83
2019-03-24T23:53:59.466Z,12.37
2019-03-24T23:56:04.814Z,13.10
2019-03-24T23:58:10.244Z,12.80
